Time;durP1;ratioP1;P1;durP2;ratioP2;P2;SDS_P1;SDS_P2;PMS_P1;PMS_P2;Temp;Humidity;BMP_temperature;BMP_pressure;BME280_temperature;BME280_humidity;BME280_pressure;Samples;Min_cycle;Max_cycle;Signal;HPM_P1;HPM_P2
2023/07/24 00:00:10;;;;;;;20.15;6.80;;;;;;;16.23;100.00;100462.97;5066267;28;20036;-72
2023/07/24 00:02:35;;;;;;;19.95;6.57;;;;;;;16.23;100.00;100455.84;5062055;28;20067;-71
2023/07/24 00:05:00;;;;;;;20.75;7.03;;;;;;;16.26;100.00;100455.75;5065510;28;20082;-71
2023/07/24 00:07:26;;;;;;;20.77;6.40;;;;;;;16.28;100.00;100453.03;5063241;28;20029;-72
2023/07/24 00:09:51;;;;;;;20.77;6.72;;;;;;;16.28;100.00;100459.28;5063989;28;20025;-71
2023/07/24 00:12:16;;;;;;;20.65;6.75;;;;;;;16.27;100.00;100449.50;5065742;28;20032;-71
2023/07/24 00:14:42;;;;;;;20.63;6.82;;;;;;;16.29;100.00;100454.81;5062638;28;20044;-71
2023/07/24 00:17:07;;;;;;;22.45;7.40;;;;;;;16.29;100.00;100444.13;5066215;28;20040;-72
2023/07/24 00:19:32;;;;;;;21.55;7.18;;;;;;;16.27;100.00;100441.50;5063278;28;20040;-71
2023/07/24 00:21:58;;;;;;;22.77;7.20;;;;;;;16.26;100.00;100439.75;5064735;28;20135;-71
2023/07/24 00:24:23;;;;;;;22.35;7.72;;;;;;;16.25;100.00;100440.69;5064620;28;20020;-72
2023/07/24 00:26:48;;;;;;;21.98;7.43;;;;;;;16.26;100.00;100438.88;5063238;28;20036;-71
2023/07/24 00:29:14;;;;;;;21.45;7.53;;;;;;;16.23;100.00;100431.84;5064684;28;20063;-72
2023/07/24 00:31:39;;;;;;;22.00;8.02;;;;;;;16.23;100.00;100423.84;5062770;28;20037;-71
2023/07/24 00:34:04;;;;;;;23.02;8.13;;;;;;;16.22;100.00;100419.41;5065388;28;20025;-72
2023/07/24 00:36:30;;;;;;;23.45;8.07;;;;;;;16.22;100.00;100419.41;5063172;28;20460;-72
2023/07/24 00:38:55;;;;;;;22.25;7.65;;;;;;;16.20;100.00;100410.59;5064187;28;20033;-71
2023/07/24 00:41:20;;;;;;;23.15;7.80;;;;;;;16.19;100.00;100408.81;5064499;28;20027;-72
2023/07/24 00:43:46;;;;;;;23.08;8.07;;;;;;;16.18;100.00;100407.09;5062567;28;20020;-71
2023/07/24 00:46:11;;;;;;;22.95;7.80;;;;;;;16.18;100.00;100412.44;5066183;28;20035;-72
2023/07/24 00:48:38;;;;;;;23.05;8.48;;;;;;;16.17;100.00;100406.19;5062025;28;20024;-70
2023/07/24 00:51:04;;;;;;;22.33;8.02;;;;;;;16.19;100.00;100398.16;5064988;28;20487;-72
2023/07/24 00:53:30;;;;;;;23.52;8.43;;;;;;;16.19;100.00;100392.81;5063014;28;20040;-72
2023/07/24 00:55:56;;;;;;;23.20;8.35;;;;;;;16.20;100.00;100405.25;5063485;28;20503;-72
2023/07/24 00:58:22;;;;;;;24.63;9.50;;;;;;;16.19;100.00;100398.16;5063536;28;20491;-72
2023/07/24 01:00:47;;;;;;;25.58;9.32;;;;;;;16.20;100.00;100399.91;5062269;28;20446;-65
2023/07/24 01:03:13;;;;;;;24.70;9.18;;;;;;;16.18;100.00;100401.75;5065140;28;20131;-65
2023/07/24 01:05:38;;;;;;;24.98;9.30;;;;;;;16.20;100.00;100391.91;5057880;28;20044;-66
2023/07/24 01:08:04;;;;;;;25.50;9.80;;;;;;;16.18;100.00;100377.75;5064472;28;20017;-65
2023/07/24 01:10:30;;;;;;;27.35;10.07;;;;;;;16.19;100.00;100377.72;5062737;28;20029;-66
2023/07/24 01:13:19;;;;;;;25.80;10.45;;;;;;;16.18;100.00;100375.09;5063439;28;20040;-66
2023/07/24 01:15:56;;;;;;;28.05;10.63;;;;;;;16.19;100.00;100376.81;5058690;28;20476;-65
2023/07/24 01:18:24;;;;;;;25.95;10.43;;;;;;;16.18;100.00;100377.75;5063773;28;20021;-65
2023/07/24 01:20:56;;;;;;;27.60;10.50;;;;;;;16.18;100.00;100369.75;5062598;28;20029;-65
2023/07/24 01:23:47;;;;;;;27.88;10.57;;;;;;;16.19;100.00;100372.38;5063623;28;20024;-66
2023/07/24 01:26:13;;;;;;;26.83;10.73;;;;;;;16.18;100.00;100375.09;5057930;28;20037;-65
2023/07/24 01:28:39;;;;;;;28.17;10.82;;;;;;;16.21;100.00;100373.22;5065154;28;20028;-65
2023/07/24 01:31:04;;;;;;;27.08;10.90;;;;;;;16.21;100.00;100370.53;5061832;28;20032;-65
2023/07/24 01:33:31;;;;;;;27.13;10.93;;;;;;;16.24;100.00;100364.25;5063484;28;20376;-67
2023/07/24 01:36:02;;;;;;;28.80;10.75;;;;;;;16.25;100.00;100375.78;5062943;28;20029;-66
2023/07/24 01:38:28;;;;;;;25.98;8.27;;;;;;;16.23;100.00;100362.50;5063238;28;20131;-68
2023/07/24 01:40:54;;;;;;;24.70;9.10;;;;;;;16.26;100.00;100373.06;5063125;28;20464;-67
2023/07/24 01:43:20;;;;;;;23.98;8.07;;;;;;;16.23;100.00;100361.63;5062156;28;20025;-67
2023/07/24 01:45:46;;;;;;;23.83;8.90;;;;;;;16.23;100.00;100348.31;5064320;28;20028;-67
2023/07/24 01:48:11;;;;;;;24.92;9.00;;;;;;;16.23;100.00;100354.50;5061019;28;20036;-76
2023/07/24 01:50:36;;;;;;;26.15;9.02;;;;;;;16.23;100.00;100354.50;5064428;28;20036;-76
2023/07/24 01:53:02;;;;;;;26.63;9.88;;;;;;;16.24;100.00;100336.69;5061841;28;20429;-67
2023/07/24 01:55:27;;;;;;;26.85;10.52;;;;;;;16.24;100.00;100331.38;5062795;28;20032;-66
2023/07/24 01:57:52;;;;;;;27.77;10.85;;;;;;;16.24;100.00;100336.69;5063280;28;20028;-66
2023/07/24 02:00:18;;;;;;;27.88;11.02;;;;;;;16.22;100.00;100326.06;5061427;28;20043;-66
2023/07/24 02:02:43;;;;;;;27.48;10.45;;;;;;;16.23;100.00;100321.63;5064412;28;20037;-67
2023/07/24 02:05:08;;;;;;;26.40;9.98;;;;;;;16.22;100.00;100312.75;5056940;28;20126;-67
2023/07/24 02:07:34;;;;;;;28.33;10.88;;;;;;;16.23;100.00;100324.31;5063876;28;20068;-66
2023/07/24 02:09:59;;;;;;;33.13;10.23;;;;;;;16.23;100.00;100321.63;5061551;28;20119;-68
2023/07/24 02:12:25;;;;;;;26.30;9.35;;;;;;;16.22;100.00;100307.41;5062513;28;20021;-66
2023/07/24 02:14:51;;;;;;;26.55;10.10;;;;;;;16.21;100.00;100306.53;5063246;28;20033;-66
2023/07/24 02:17:17;;;;;;;26.52;9.82;;;;;;;16.23;100.00;100303.84;5061018;28;20036;-66
2023/07/24 02:19:43;;;;;;;26.77;9.77;;;;;;;16.21;100.00;100306.53;5064386;28;20032;-67
2023/07/24 02:22:08;;;;;;;26.20;9.55;;;;;;;16.21;100.00;100303.00;5060817;28;20499;-66
2023/07/24 02:24:33;;;;;;;26.42;9.85;;;;;;;16.21;100.00;100308.34;5063550;28;20036;-69
2023/07/24 02:27:00;;;;;;;26.13;9.88;;;;;;;16.21;100.00;100311.00;5062043;28;20062;-66
2023/07/24 02:29:26;;;;;;;26.75;10.35;;;;;;;16.22;100.00;100310.06;5062188;28;20155;-75
2023/07/24 02:31:51;;;;;;;28.55;10.52;;;;;;;16.23;100.00;100303.84;5063270;28;20111;-74
2023/07/24 02:34:16;;;;;;;27.33;10.55;;;;;;;16.23;100.00;100295.84;5060989;28;20112;-73
2023/07/24 02:36:42;;;;;;;26.98;10.85;;;;;;;16.24;100.00;100297.59;5063920;28;20167;-76
2023/07/24 02:39:08;;;;;;;27.77;10.85;;;;;;;16.25;100.00;100304.69;5060959;28;20040;-74
2023/07/24 02:41:33;;;;;;;29.60;11.10;;;;;;;16.25;100.00;100312.69;5063074;28;20025;-73
2023/07/24 02:43:58;;;;;;;24.80;10.15;;;;;;;16.19;100.00;100307.50;5062208;28;20395;-75
2023/07/24 02:46:24;;;;;;;28.48;11.43;;;;;;;16.18;100.00;100322.63;5062021;28;20361;-72
2023/07/24 02:48:51;;;;;;;28.25;11.35;;;;;;;16.16;100.00;100316.47;5063019;28;20028;-73
2023/07/24 02:51:16;;;;;;;27.65;11.55;;;;;;;16.15;100.00;100297.81;5060730;28;20040;-72
2023/07/24 02:53:41;;;;;;;29.13;11.57;;;;;;;16.11;100.00;100282.84;5064100;28;20028;-72
2023/07/24 02:56:07;;;;;;;26.00;10.07;;;;;;;16.03;100.00;100281.28;5059442;28;20041;-84
2023/07/24 02:58:32;;;;;;;25.45;10.30;;;;;;;16.01;100.00;100284.88;5062777;28;20035;-71
2023/07/24 03:01:06;;;;;;;25.23;9.73;;;;;;;15.94;100.00;100302.81;5061883;28;20060;-90
2023/07/24 03:03:32;;;;;;;24.40;9.48;;;;;;;15.78;100.00;100301.44;5062714;28;20545;-74
2023/07/24 03:05:57;;;;;;;24.45;10.00;;;;;;;15.75;100.00;100306.84;5061940;28;20028;-76
2023/07/24 03:08:22;;;;;;;22.55;8.80;;;;;;;15.56;100.00;100288.66;5061544;28;20132;-67
2023/07/24 03:10:48;;;;;;;23.60;8.98;;;;;;;15.44;100.00;100273.88;5063330;28;20078;-67
2023/07/24 03:13:13;;;;;;;23.10;9.02;;;;;;;15.38;100.00;100275.78;5060201;28;20017;-67
2023/07/24 03:15:38;;;;;;;24.05;9.07;;;;;;;15.33;100.00;100276.81;5063613;28;20094;-66
2023/07/24 03:18:04;;;;;;;26.45;8.63;;;;;;;15.28;100.00;100275.16;5060962;28;20029;-67
2023/07/24 03:20:29;;;;;;;23.90;8.95;;;;;;;15.22;100.00;100285.94;5063128;28;20065;-68
2023/07/24 03:22:54;;;;;;;23.25;9.10;;;;;;;15.23;100.00;100301.91;5064626;28;20464;-67
2023/07/24 03:25:20;;;;;;;25.30;8.85;;;;;;;15.26;100.00;100304.50;5064313;28;20033;-67
2023/07/24 03:27:45;;;;;;;23.23;8.57;;;;;;;15.23;100.00;100288.59;5067137;28;20051;-67
2023/07/24 03:30:11;;;;;;;23.67;8.60;;;;;;;15.21;100.00;100277.09;5063610;28;20029;-67
2023/07/24 03:32:37;;;;;;;22.08;8.40;;;;;;;15.15;100.00;100275.44;5066365;28;20021;-67
2023/07/24 03:35:03;;;;;;;24.10;8.57;;;;;;;15.13;100.00;100277.28;5064597;28;20063;-66
2023/07/24 03:37:29;;;;;;;22.13;8.30;;;;;;;15.11;100.00;100275.56;5065328;28;20124;-67
2023/07/24 03:39:54;;;;;;;23.45;8.50;;;;;;;15.11;100.00;100265.78;5065584;28;20443;-66
2023/07/24 03:42:27;;;;;;;23.33;8.60;;;;;;;15.14;100.00;100267.50;5064400;28;20044;-67
2023/07/24 03:44:54;;;;;;;23.23;8.77;;;;;;;15.15;100.00;100269.25;5065593;28;20025;-67
2023/07/24 03:47:19;;;;;;;24.13;8.68;;;;;;;15.18;100.00;100265.66;5063873;28;20033;-67
2023/07/24 03:49:44;;;;;;;25.05;8.93;;;;;;;15.16;100.00;100268.34;5066817;28;20032;-67
2023/07/24 03:52:10;;;;;;;22.75;8.75;;;;;;;15.15;100.00;100266.59;5059095;28;20037;-66
2023/07/24 03:54:35;;;;;;;23.88;8.80;;;;;;;15.14;100.00;100264.84;5065944;28;20028;-66
2023/07/24 03:57:00;;;;;;;23.58;8.75;;;;;;;15.17;100.00;100264.75;5064471;28;20454;-67
2023/07/24 03:59:26;;;;;;;24.20;8.93;;;;;;;15.14;100.00;100267.50;5064556;28;20033;-67
2023/07/24 04:01:51;;;;;;;24.10;8.80;;;;;;;15.14;100.00;100267.50;5065388;28;20048;-67
2023/07/24 04:04:16;;;;;;;24.40;8.77;;;;;;;15.15;100.00;100269.25;5063301;28;20072;-67
2023/07/24 04:06:42;;;;;;;25.13;9.38;;;;;;;15.16;100.00;100274.53;5066421;28;20033;-67
2023/07/24 04:09:07;;;;;;;23.60;8.88;;;;;;;15.17;100.00;100278.06;5063226;28;20021;-67
2023/07/24 04:11:33;;;;;;;25.15;9.15;;;;;;;15.20;100.00;100277.13;5065720;28;20036;-68
2023/07/24 04:13:58;;;;;;;25.00;8.80;;;;;;;15.20;100.00;100279.78;5064490;28;20029;-67
2023/07/24 04:16:23;;;;;;;24.80;8.88;;;;;;;15.20;100.00;100288.63;5063828;28;20091;-67
2023/07/24 04:18:48;;;;;;;25.55;9.23;;;;;;;15.22;100.00;100293.94;5065681;28;20036;-68
2023/07/24 04:21:14;;;;;;;27.00;10.00;;;;;;;15.23;100.00;100277.94;5062539;28;20120;-68
2023/07/24 04:23:39;;;;;;;25.85;9.52;;;;;;;15.22;100.00;100286.84;5066051;28;20031;-68
2023/07/24 04:26:04;;;;;;;26.48;9.93;;;;;;;15.21;100.00;100282.41;5063305;28;20033;-68
2023/07/24 04:28:30;;;;;;;29.95;10.18;;;;;;;15.24;100.00;100286.81;5064369;28;20029;-68
2023/07/24 04:30:55;;;;;;;26.92;10.23;;;;;;;15.23;100.00;100282.38;5064684;28;20024;-68
2023/07/24 04:33:21;;;;;;;27.65;11.07;;;;;;;15.20;100.00;100280.66;5062856;28;20569;-69
2023/07/24 04:35:49;;;;;;;29.13;10.88;;;;;;;15.20;100.00;100293.97;5065582;28;20040;-68
2023/07/24 04:38:14;;;;;;;27.15;10.32;;;;;;;15.18;100.00;100294.94;5062809;28;20357;-69
2023/07/24 04:40:43;;;;;;;26.15;10.23;;;;;;;15.16;100.00;100297.63;5064333;28;20069;-69
2023/07/24 04:43:09;;;;;;;26.55;10.82;;;;;;;15.14;100.00;100299.44;5062301;28;20025;-69
2023/07/24 04:45:34;;;;;;;26.73;10.82;;;;;;;15.11;100.00;100294.19;5064815;28;20073;-68
2023/07/24 04:48:00;;;;;;;24.80;10.90;;;;;;;15.03;100.00;100281.06;5063550;28;20111;-68
2023/07/24 04:50:25;;;;;;;29.23;11.63;;;;;;;15.02;100.00;100287.28;5063330;28;20107;-68
2023/07/24 04:52:50;;;;;;;27.20;11.45;;;;;;;14.98;100.00;100282.94;5046976;28;20078;-79
2023/07/24 04:55:16;;;;;;;27.35;12.02;;;;;;;14.95;100.00;100293.66;5061881;28;20075;-68
2023/07/24 04:57:41;;;;;;;26.95;11.75;;;;;;;14.87;100.00;100291.19;5065319;28;20027;-68
2023/07/24 05:00:07;;;;;;;26.40;11.73;;;;;;;14.77;100.00;100294.97;5062603;28;20029;-68
2023/07/24 05:02:32;;;;;;;26.73;11.70;;;;;;;14.72;100.00;100287.09;5063919;28;20053;-72
2023/07/24 05:04:58;;;;;;;28.52;13.27;;;;;;;14.70;100.00;100283.56;5063594;28;20063;-68
2023/07/24 05:07:23;;;;;;;29.65;13.27;;;;;;;14.71;100.00;100276.44;5062676;28;20029;-68
2023/07/24 05:09:48;;;;;;;28.95;12.93;;;;;;;14.76;100.00;100280.75;5064743;28;20079;-68
2023/07/24 05:12:14;;;;;;;29.00;12.95;;;;;;;14.74;100.00;100287.91;5060616;28;20033;-68
2023/07/24 05:14:39;;;;;;;27.67;12.23;;;;;;;14.69;100.00;100280.94;5064752;28;20025;-68
2023/07/24 05:17:05;;;;;;;26.90;12.25;;;;;;;14.62;100.00;100297.03;5062271;28;20399;-68
2023/07/24 05:19:30;;;;;;;27.88;12.80;;;;;;;14.67;100.00;100296.06;5063674;28;20122;-68
2023/07/24 05:21:56;;;;;;;29.33;12.88;;;;;;;14.66;100.00;100297.81;5063480;28;20497;-68
2023/07/24 05:24:21;;;;;;;29.80;13.68;;;;;;;14.69;100.00;100296.91;5062338;28;20101;-68
2023/07/24 05:26:46;;;;;;;29.30;13.63;;;;;;;14.70;100.00;100298.66;5065152;28;20487;-68
2023/07/24 05:29:12;;;;;;;30.02;14.25;;;;;;;14.70;100.00;100298.66;5061286;28;20025;-68
2023/07/24 05:31:37;;;;;;;29.50;14.13;;;;;;;14.71;100.00;100300.38;5064391;28;20059;-68
2023/07/24 05:34:03;;;;;;;30.67;14.38;;;;;;;14.73;100.00;100295.94;5062621;28;20095;-68
2023/07/24 05:36:29;;;;;;;29.98;14.55;;;;;;;14.82;100.00;100298.38;5062762;28;20252;-69
2023/07/24 05:38:54;;;;;;;30.35;14.57;;;;;;;14.89;100.00;100300.00;5063619;28;20032;-69
2023/07/24 05:41:20;;;;;;;30.80;14.90;;;;;;;14.90;100.00;100307.06;5061584;28;20033;-80
2023/07/24 05:43:45;;;;;;;32.08;15.27;;;;;;;14.97;100.00;100303.38;5061263;28;20410;-80
2023/07/24 05:46:10;;;;;;;32.83;15.20;;;;;;;15.01;100.00;100308.63;5060978;28;20029;-79
2023/07/24 05:48:36;;;;;;;32.92;16.17;;;;;;;14.97;100.00;100303.38;5064571;28;20479;-68
2023/07/24 05:51:01;;;;;;;33.38;15.88;;;;;;;15.02;100.00;100307.72;5064393;28;20468;-75
2023/07/24 05:53:26;;;;;;;32.63;15.35;;;;;;;14.95;100.00;100305.16;5061472;28;20044;-79
2023/07/24 05:56:02;;;;;;;34.33;15.75;;;;;;;15.05;100.00;100316.50;5063019;28;20079;-78
2023/07/24 05:58:28;;;;;;;34.63;15.63;;;;;;;15.08;100.00;100327.06;5060909;28;20033;-80
2023/07/24 06:00:55;;;;;;;32.35;15.15;;;;;;;15.05;100.00;100326.28;5064048;28;20064;-86
2023/07/24 06:03:20;;;;;;;34.15;15.38;;;;;;;15.15;100.00;100317.16;5061270;28;20032;-79
2023/07/24 06:05:45;;;;;;;32.53;14.32;;;;;;;15.22;100.00;100320.56;5063754;28;20028;-75
2023/07/24 06:08:11;;;;;;;32.53;14.30;;;;;;;15.24;100.00;100321.41;5062149;28;20164;-66
2023/07/24 06:10:37;;;;;;;32.90;14.48;;;;;;;15.25;100.00;100317.84;5062743;28;20029;-79
2023/07/24 06:13:02;;;;;;;32.58;13.98;;;;;;;15.24;100.00;100327.59;5060580;28;20567;-79
2023/07/24 06:15:28;;;;;;;32.70;14.02;;;;;;;15.22;100.00;100329.44;5062438;28;20025;-66
2023/07/24 06:17:53;;;;;;;32.05;13.82;;;;;;;15.22;100.00;100340.09;5063081;28;20020;-67
2023/07/24 06:20:19;;;;;;;34.05;14.65;;;;;;;15.33;100.00;100334.50;5060791;28;20036;-80
2023/07/24 06:22:44;;;;;;;31.10;13.60;;;;;;;15.36;100.00;100331.75;5063734;28;20589;-67
2023/07/24 06:25:09;;;;;;;30.35;13.15;;;;;;;15.36;100.00;100326.44;5062770;28;20044;-72
2023/07/24 06:27:35;;;;;;;31.35;13.02;;;;;;;15.60;100.00;100326.78;5060780;28;20029;-77
2023/07/24 06:30:00;;;;;;;29.55;12.25;;;;;;;15.58;100.00;100326.81;5063974;28;20116;-81
2023/07/24 06:32:25;;;;;;;30.00;12.45;;;;;;;15.52;100.00;100321.63;5063796;28;20028;-79
2023/07/24 06:34:51;;;;;;;29.05;11.60;;;;;;;15.59;100.00;100328.53;5063440;28;20064;-74
2023/07/24 06:37:16;;;;;;;28.88;12.45;;;;;;;15.72;100.00;100330.91;5061962;28;20032;-75
2023/07/24 06:39:42;;;;;;;29.23;12.45;;;;;;;15.60;100.00;100335.63;5061872;28;20033;-79
2023/07/24 06:42:07;;;;;;;30.00;12.15;;;;;;;15.61;100.00;100334.72;5063243;28;20107;-80
2023/07/24 06:44:32;;;;;;;29.70;12.45;;;;;;;15.59;100.00;100333.00;5054868;28;20025;-77
2023/07/24 06:46:58;;;;;;;30.80;12.35;;;;;;;15.52;100.00;100338.50;5063220;28;20033;-79
2023/07/24 06:49:23;;;;;;;28.73;12.48;;;;;;;15.45;100.00;100336.00;5061154;28;20068;-81
2023/07/24 06:51:48;;;;;;;28.70;11.98;;;;;;;15.47;100.00;100334.19;5062345;28;20499;-78
2023/07/24 06:54:14;;;;;;;28.90;12.70;;;;;;;15.44;100.00;100327.13;5062264;28;20040;-82
2023/07/24 06:56:39;;;;;;;27.58;11.98;;;;;;;15.33;100.00;100331.84;5064964;28;20039;-69
2023/07/24 06:59:04;;;;;;;28.90;12.43;;;;;;;15.27;100.00;100332.84;5065144;28;20079;-80
2023/07/24 07:01:30;;;;;;;28.23;12.30;;;;;;;15.39;100.00;100322.81;5066382;28;20072;-68
2023/07/24 07:03:55;;;;;;;30.52;13.02;;;;;;;15.40;100.00;100329.91;5064238;28;20051;-80
2023/07/24 07:06:20;;;;;;;30.17;12.52;;;;;;;15.47;100.00;100323.53;5067265;28;20108;-68
2023/07/24 07:08:46;;;;;;;30.10;12.38;;;;;;;15.42;100.00;100328.97;5061583;28;20036;-77
2023/07/24 07:11:11;;;;;;;27.95;11.93;;;;;;;15.39;100.00;100325.50;5064734;28;20104;-77
2023/07/24 07:13:36;;;;;;;27.27;11.70;;;;;;;15.36;100.00;100330.91;5066271;28;20048;-81
2023/07/24 07:16:02;;;;;;;26.73;10.98;;;;;;;15.38;100.00;100331.72;5063888;28;20037;-84
2023/07/24 07:18:27;;;;;;;27.90;11.50;;;;;;;15.34;100.00;100329.13;5067355;28;20036;-84
2023/07/24 07:20:54;;;;;;;27.75;11.15;;;;;;;15.35;100.00;100324.69;5063783;28;20032;-85
2023/07/24 07:23:20;;;;;;;26.98;11.60;;;;;;;15.16;100.00;100318.94;5064432;28;20033;-79
2023/07/24 07:25:45;;;;;;;27.02;11.30;;;;;;;15.30;100.00;100321.25;5066851;28;20395;-84
2023/07/24 07:28:15;;;;;;;24.00;9.85;;;;;;;15.09;100.00;100312.88;5064129;28;20051;-66
2023/07/24 07:30:40;;;;;;;21.77;8.77;;;;;;;14.88;100.00;100310.69;5066507;28;20361;-83
2023/07/24 07:33:06;;;;;;;21.95;8.35;;;;;;;14.86;100.00;100316.03;5064690;28;20036;-83
2023/07/24 07:35:35;;;;;;;21.92;8.20;;;;;;;14.90;100.00;100316.84;5064892;28;20526;-80
2023/07/24 07:38:01;;;;;;;22.20;8.40;;;;;;;15.09;100.00;100326.16;5065266;28;20070;-66
2023/07/24 07:40:27;;;;;;;22.05;8.27;;;;;;;15.36;100.00;100320.25;5063364;28;20025;-66
2023/07/24 07:42:53;;;;;;;21.30;8.02;;;;;;;15.44;100.00;100320.94;5065583;28;20032;-67
2023/07/24 07:45:19;;;;;;;20.77;7.45;;;;;;;15.38;100.00;100321.06;5063495;28;20025;-67
2023/07/24 07:47:44;;;;;;;20.38;7.75;;;;;;;15.24;100.00;100314.28;5063387;28;20040;-66
2023/07/24 07:50:10;;;;;;;21.35;8.20;;;;;;;15.52;100.00;100316.28;5066244;28;20055;-66
2023/07/24 07:52:36;;;;;;;21.30;8.32;;;;;;;15.64;100.00;100316.00;5063298;28;20431;-67
2023/07/24 07:55:01;;;;;;;22.05;8.38;;;;;;;15.64;100.00;100321.31;5064803;28;20079;-67
2023/07/24 07:57:26;;;;;;;21.40;8.43;;;;;;;15.51;100.00;100314.56;5063900;28;20060;-73
2023/07/24 07:59:52;;;;;;;21.60;8.20;;;;;;;15.66;100.00;100313.31;5066178;28;20042;-67
2023/07/24 08:02:17;;;;;;;21.13;8.70;;;;;;;15.76;100.00;100319.28;5063408;28;20140;-69
2023/07/24 08:04:42;;;;;;;22.00;8.50;;;;;;;15.62;100.00;100308.94;5064845;28;20094;-67
2023/07/24 08:07:08;;;;;;;21.52;9.07;;;;;;;15.59;100.00;100317.03;5064485;28;20021;-67
2023/07/24 08:09:33;;;;;;;21.80;9.27;;;;;;;15.75;100.00;100322.84;5063397;28;20029;-67
2023/07/24 08:11:59;;;;;;;22.75;10.10;;;;;;;15.72;100.00;100317.59;5066462;28;20103;-67
2023/07/24 08:14:24;;;;;;;23.33;10.15;;;;;;;15.60;100.00;100314.31;5058738;28;20021;-67
2023/07/24 08:16:50;;;;;;;22.60;9.95;;;;;;;15.58;100.00;100316.16;5065788;28;20031;-71
2023/07/24 08:19:16;;;;;;;24.02;10.75;;;;;;;15.64;100.00;100316.00;5063837;28;20029;-67
2023/07/24 08:21:41;;;;;;;24.77;12.38;;;;;;;15.97;100.00;100315.19;5064293;28;20364;-66
2023/07/24 08:24:07;;;;;;;25.73;13.23;;;;;;;16.13;100.00;100310.34;5065011;28;20060;-66
2023/07/24 08:26:32;;;;;;;25.67;12.80;;;;;;;16.40;100.00;100300.69;5063351;28;20028;-67
2023/07/24 08:28:58;;;;;;;23.55;12.27;;;;;;;16.14;100.00;100306.75;5066045;28;20382;-70
2023/07/24 08:31:23;;;;;;;25.17;13.38;;;;;;;16.25;100.00;100303.78;5062550;28;20465;-66
2023/07/24 08:33:48;;;;;;;26.42;13.82;;;;;;;16.08;100.00;100309.59;5065194;28;20078;-67
2023/07/24 08:36:14;;;;;;;25.80;13.15;;;;;;;16.01;100.00;100304.41;5063699;28;20039;-72
2023/07/24 08:38:40;;;;;;;23.92;12.50;;;;;;;15.97;100.00;100313.41;5063637;28;20495;-68
2023/07/24 08:41:13;;;;;;;23.75;12.27;;;;;;;15.91;100.00;100302.91;5065184;28;20048;-67
2023/07/24 08:43:41;;;;;;;25.25;13.35;;;;;;;15.89;100.00;100296.75;5063466;28;20059;-70
2023/07/24 08:46:07;;;;;;;23.77;12.60;;;;;;;15.86;100.00;100299.50;5064587;28;20016;-66
2023/07/24 08:48:42;;;;;;;24.73;13.27;;;;;;;16.00;100.00;100305.34;5062685;28;20041;-67
2023/07/24 08:51:11;;;;;;;23.15;11.73;;;;;;;15.98;100.00;100300.97;5064654;28;20471;-67
2023/07/24 08:53:38;;;;;;;24.35;12.98;;;;;;;16.08;100.00;100298.94;5062789;28;20082;-67
2023/07/24 08:56:05;;;;;;;25.55;13.48;;;;;;;16.17;100.00;100296.00;5064691;28;20039;-66
2023/07/24 08:58:30;;;;;;;25.00;13.32;;;;;;;16.16;100.00;100294.25;5061932;28;20475;-69
2023/07/24 09:00:57;;;;;;;25.30;13.73;;;;;;;16.24;100.00;100286.94;5065263;28;20027;-66
2023/07/24 09:03:22;;;;;;;25.00;13.15;;;;;;;16.21;100.00;100279.00;5061935;28;20045;-66
2023/07/24 09:05:47;;;;;;;24.63;12.98;;;;;;;16.19;100.00;100291.50;5064367;28;20033;-67
2023/07/24 09:08:13;;;;;;;22.02;10.75;;;;;;;16.01;100.00;100276.88;5063223;28;20020;-69
2023/07/24 09:10:39;;;;;;;22.27;9.50;;;;;;;16.00;100.00;100270.69;5063131;28;20032;-66
2023/07/24 09:13:04;;;;;;;21.67;9.75;;;;;;;16.02;100.00;100260.84;5064279;28;20391;-66
2023/07/24 09:15:40;;;;;;;21.35;9.60;;;;;;;16.27;100.00;100261.97;5061453;28;20033;-68
2023/07/24 09:18:05;;;;;;;20.73;8.88;;;;;;;16.59;100.00;100261.03;5063335;28;20032;-67
2023/07/24 09:20:39;;;;;;;20.38;8.75;;;;;;;16.74;100.00;100247.19;5061786;28;20151;-66
2023/07/24 09:23:04;;;;;;;20.67;8.60;;;;;;;17.08;100.00;100246.19;5064189;28;20047;-67
2023/07/24 09:25:31;;;;;;;18.90;7.55;;;;;;;17.21;100.00;100238.66;5061542;28;20025;-69
2023/07/24 09:27:58;;;;;;;19.42;7.60;;;;;;;17.21;100.00;100245.78;5065144;28;20050;-66
2023/07/24 09:30:24;;;;;;;18.75;7.60;;;;;;;17.24;100.00;100227.88;5061539;28;20036;-68
2023/07/24 09:32:55;;;;;;;18.10;6.50;;;;;;;17.05;100.00;100222.28;5063894;28;20021;-66
2023/07/24 09:35:27;;;;;;;17.67;6.65;;;;;;;16.82;100.00;100208.72;5061859;28;20025;-66
2023/07/24 09:38:06;;;;;;;18.30;6.32;;;;;;;16.81;100.00;100207.88;5063757;28;20035;-67
2023/07/24 09:40:40;;;;;;;16.63;6.13;;;;;;;16.97;100.00;100192.28;5064335;28;20055;-67
2023/07/24 09:43:25;;;;;;;15.75;5.25;;;;;;;17.00;100.00;100170.81;5055830;28;20395;-67
2023/07/24 09:45:51;;;;;;;14.70;5.10;;;;;;;16.79;100.00;100169.69;5060793;28;20021;-66
2023/07/24 09:48:19;;;;;;;14.40;5.25;;;;;;;16.70;100.00;100170.84;5063014;28;20029;-66
2023/07/24 09:50:47;;;;;;;14.82;5.05;;;;;;;16.56;100.00;100160.59;5062006;28;20021;-66
2023/07/24 09:53:31;;;;;;;16.73;5.57;;;;;;;16.51;100.00;100157.22;5063771;28;20025;-67
2023/07/24 09:55:59;;;;;;;15.63;5.43;;;;;;;16.42;100.00;100152.16;5063732;28;20439;-66
2023/07/24 09:58:25;;;;;;;16.10;5.57;;;;;;;16.42;100.00;100154.81;5062055;28;20029;-66
2023/07/24 10:00:52;;;;;;;16.33;5.80;;;;;;;16.47;100.00;100160.00;5062857;28;20074;-66
2023/07/24 10:06:16;;;;;;;16.73;5.93;;;;;;;16.50;100.00;100149.28;5049468;28;20036;-65
2023/07/24 10:08:42;;;;;;;16.08;5.63;;;;;;;16.29;100.00;100154.31;5061412;28;20476;-65
2023/07/24 10:11:11;;;;;;;15.52;5.35;;;;;;;16.13;100.00;100158.38;5064395;28;20037;-65
2023/07/24 10:13:37;;;;;;;16.85;5.80;;;;;;;16.20;100.00;100175.94;5060958;28;20496;-65
2023/07/24 10:16:06;;;;;;;16.95;6.05;;;;;;;16.24;100.00;100176.69;5056633;28;20480;-65
2023/07/24 10:18:33;;;;;;;16.30;5.85;;;;;;;16.17;100.00;100178.69;5064044;28;20044;-70
2023/07/24 10:21:03;;;;;;;16.65;6.00;;;;;;;16.17;100.00;100178.69;5061577;28;20029;-66
2023/07/24 10:23:29;;;;;;;17.27;6.38;;;;;;;16.16;100.00;100179.59;5063571;28;20032;-65
2023/07/24 10:25:55;;;;;;;17.05;6.30;;;;;;;16.20;100.00;100189.25;5061746;28;20502;-66
2023/07/24 10:28:34;;;;;;;17.88;6.45;;;;;;;16.15;100.00;100186.75;5062542;28;20094;-65
2023/07/24 10:31:00;;;;;;;18.30;6.60;;;;;;;16.14;100.00;100184.97;5064355;28;20043;-66
2023/07/24 10:33:30;;;;;;;18.10;6.75;;;;;;;16.28;100.00;100191.69;5067103;28;20031;-66
2023/07/24 10:36:05;;;;;;;17.58;6.90;;;;;;;16.35;100.00;100191.50;5065450;28;20032;-65
2023/07/24 10:38:36;;;;;;;18.38;7.28;;;;;;;16.43;100.00;100190.38;5067781;28;20055;-66
2023/07/24 10:41:03;;;;;;;18.13;7.07;;;;;;;16.46;100.00;100171.63;5064974;28;20482;-65
2023/07/24 10:43:39;;;;;;;18.20;7.00;;;;;;;16.73;100.00;100170.75;5067277;28;20178;-71
2023/07/24 10:46:04;;;;;;;18.08;6.90;;;;;;;17.01;100.00;100179.72;5060529;28;20025;-65
2023/07/24 10:48:29;;;;;;;17.17;6.47;;;;;;;17.22;100.00;100191.47;5067567;28;20027;-66
2023/07/24 10:50:55;;;;;;;16.60;6.40;;;;;;;17.46;100.00;100195.09;5065431;28;20422;-65
2023/07/24 10:53:22;;;;;;;18.20;7.22;;;;;;;17.63;100.00;100183.81;5066087;28;20121;-65
2023/07/24 10:55:50;;;;;;;18.60;7.03;;;;;;;17.84;100.00;100176.84;5066457;28;20033;-72
2023/07/24 10:58:15;;;;;;;16.98;6.47;;;;;;;17.92;100.00;100180.13;5065139;28;20032;-66
2023/07/24 11:00:44;;;;;;;17.40;6.78;;;;;;;18.03;100.00;100171.72;5067308;28;20029;-67
2023/07/24 11:03:11;;;;;;;17.95;6.25;;;;;;;18.13;100.00;100182.97;5064341;28;20119;-68